Terminal Aerodrome Forecast
Issued by NWS

Home | Current Version | Previous Version | Text Only | Print | Product List | Glossary On
Versions: 1 2 3 4 5 6 7 8 9 10 11 12 13 14 15 16
328
FTUS43 KIND 091120
TAFLAF
TAF
KLAF 091120Z 0912/1012 28007KT P6SM VCSH BKN050
     FM091400 28007KT P6SM BKN060
     FM100000 28006KT P6SM BKN025
     FM100500 28005KT P6SM BKN035
     FM100900 26005KT P6SM BKN030
     FM101000 26005KT P6SM BKN035
      AMD LTD TO CLD VIS AND WIND TIL 091400=

USA.gov is the U.S. government's official web portal to all federal, state and local government web resources and services.